Date,TemperatureHighF,TemperatureAvgF,TemperatureLowF,DewpointHighF,DewpointAvgF,DewpointLowF,HumidityHigh,HumidityAvg,HumidityLow,PressureMaxIn,PressureMinIn,WindSpeedMaxMPH,WindSpeedAvgMPH,GustSpeedMaxMPH,PrecipitationSumIn
2013-6-12,90.0,80.7,67.0,74.0,70.2,65.0,95,71,54,0.00,40.00,7,3,0,0.00
2013-6-13,82.0,75.6,63.0,72.0,67.0,57.0,95,75,55,0.00,40.00,9,3,0,0.00
2013-6-14,80.0,68.0,56.0,64.0,58.2,54.0,95,73,45,0.00,40.00,2,1,0,0.00
2013-6-15,84.0,71.3,58.0,65.0,60.1,57.0,96,71,40,0.00,40.00,4,1,0,0.00
2013-6-16,82.0,70.8,65.0,71.0,65.6,62.0,95,84,64,0.00,40.00,4,1,0,0.00
2013-6-17,85.0,72.2,65.0,74.0,67.7,64.0,96,87,62,0.00,40.00,5,1,0,0.00
2013-6-18,83.0,71.2,63.0,70.0,65.2,61.0,96,83,49,0.00,40.00,4,1,0,0.00
2013-6-19,80.0,69.7,61.0,66.0,62.5,60.0,96,80,51,0.00,40.00,4,1,0,0.00
2013-6-22,88.0,80.9,71.0,71.0,67.5,64.0,86,65,46,0.00,40.00,2,1,0,0.00
2013-6-23,88.0,75.2,65.0,71.0,66.9,61.0,95,77,43,0.00,40.00,4,1,0,0.00
2013-6-24,84.0,70.1,66.0,71.0,66.9,64.0,95,90,62,0.00,40.00,2,1,0,0.00
2013-6-25,88.0,75.6,66.0,74.0,69.8,65.0,96,83,58,0.00,40.00,4,1,0,0.00
2013-6-26,84.0,72.7,67.0,75.0,69.0,66.0,96,88,68,0.00,40.00,4,2,0,0.00
2013-6-27,85.0,75.7,67.0,74.0,70.3,66.0,97,84,66,0.00,40.00,4,1,0,0.00
2013-6-28,85.0,75.6,67.0,71.0,65.0,57.0,94,71,42,0.00,40.00,3,2,0,0.00
2013-6-29,81.0,70.3,62.0,70.0,64.0,61.0,95,82,52,0.00,40.00,6,1,0,0.00
2013-6-30,80.0,68.1,62.0,66.0,63.1,61.0,96,85,53,0.00,40.00,3,1,0,0.00
2013-7-1,72.0,66.8,65.0,69.0,64.8,63.0,96,93,88,0.00,40.00,5,1,0,0.00
2013-7-2,79.0,73.0,63.0,70.0,66.8,62.0,96,82,66,0.00,40.00,2,1,0,0.00
2013-7-3,76.0,70.0,66.0,69.0,67.2,65.0,95,90,79,0.00,40.00,2,1,0,0.00
2013-7-4,71.0,68.6,65.0,69.0,67.0,64.0,96,94,86,0.00,40.00,2,1,0,0.00
2013-7-5,76.0,70.0,65.0,72.0,67.9,64.0,96,93,86,0.00,40.00,2,1,0,0.00
2013-7-6,71.0,68.6,67.0,69.0,67.2,65.0,96,95,88,0.00,40.00,7,1,0,0.00
2013-7-7,82.0,71.9,65.0,70.0,66.0,64.0,96,83,57,0.00,40.00,4,1,0,0.00
2013-7-8,86.0,71.6,63.0,73.0,66.5,62.0,96,85,55,0.00,40.00,2,1,0,0.00
2013-7-9,87.0,77.8,71.0,75.0,71.8,69.0,95,82,59,0.00,40.00,4,2,0,0.00
2013-7-10,87.0,69.5,70.0,76.0,59.5,-99.9,96,84,67,0.00,40.00,3,1,0,0.00
2013-7-11,82.0,73.5,69.0,72.0,67.9,62.0,96,84,59,0.00,40.00,1,0,0,0.00
2013-7-12,78.0,68.5,60.0,62.0,59.4,57.0,93,74,51,0.00,40.00,2,1,0,0.00
2013-7-13,81.0,72.6,62.0,67.0,64.5,60.0,94,76,54,0.00,40.00,5,2,0,0.00
2013-7-14,88.0,76.4,67.0,76.0,69.7,65.0,95,81,53,0.00,40.00,3,1,0,0.00
2013-7-15,90.0,76.6,69.0,73.0,70.3,68.0,96,83,52,0.00,40.00,4,1,0,0.00
2013-7-16,92.0,80.4,69.0,72.0,69.8,67.0,95,73,47,0.00,40.00,2,1,0,0.00
2013-7-17,92.0,78.9,71.0,77.0,72.0,69.0,95,81,49,0.00,40.00,3,1,0,0.00
2013-7-18,87.0,77.1,72.0,78.0,73.4,71.0,96,88,61,0.00,40.00,2,1,0,0.00
2013-7-19,88.0,81.9,73.0,75.0,73.5,71.0,95,76,58,0.00,40.00,4,2,0,0.00
2013-7-20,88.0,79.6,72.0,74.0,71.6,69.0,95,78,53,0.00,40.00,5,2,0,0.00
2013-7-21,84.0,76.7,71.0,74.0,71.5,69.0,96,84,67,0.00,40.00,2,1,0,0.00
2013-7-22,78.0,73.4,71.0,73.0,71.1,69.0,96,92,80,0.00,40.00,3,1,0,0.00
2013-7-23,85.0,76.1,69.0,74.0,71.2,68.0,96,85,64,0.00,40.00,5,2,0,0.00
2013-7-24,76.0,70.1,62.0,68.0,63.5,61.0,96,80,61,0.00,40.00,3,1,0,0.00
2013-7-25,77.0,66.4,59.0,63.0,59.9,57.0,94,80,54,0.00,40.00,2,1,0,0.00
2013-7-26,80.0,67.8,58.0,65.0,60.6,57.0,96,79,52,0.00,40.00,3,1,0,0.00
2013-7-27,74.0,69.4,64.0,66.0,64.6,61.0,95,85,72,0.00,40.00,4,1,0,0.00
2013-7-28,74.0,64.7,55.0,60.0,53.4,47.0,93,69,44,0.00,40.00,3,1,0,0.00
2013-7-29,79.0,63.9,54.0,64.0,56.6,53.0,96,79,46,0.00,40.00,4,1,0,0.00
2013-7-30,78.0,68.5,60.0,68.0,63.3,59.0,96,84,59,0.00,40.00,3,1,0,0.00
2013-7-31,74.0,68.3,64.0,69.0,66.1,63.0,96,92,83,0.00,40.00,4,1,0,0.00
2013-8-1,79.0,73.7,68.0,67.0,65.3,63.0,94,76,58,0.00,40.00,2,1,0,0.00
2013-8-2,81.0,72.3,60.0,68.0,62.4,59.0,96,73,49,0.00,40.00,2,1,0,0.00
2013-8-3,84.0,74.0,68.0,71.0,68.2,66.0,93,82,63,0.00,40.00,5,1,0,0.00
2013-8-4,78.0,69.3,61.0,68.0,61.0,55.0,96,77,47,0.00,40.00,2,1,0,0.00
2013-8-5,80.0,66.9,57.0,63.0,58.3,55.0,95,76,42,0.00,40.00,2,1,0,0.00
2013-8-6,82.0,74.8,65.0,73.0,68.4,61.0,92,81,66,0.00,40.00,2,1,0,0.00
2013-8-7,85.0,75.6,71.0,75.0,70.9,69.0,95,86,68,0.00,40.00,2,1,0,0.00
2013-8-8,83.0,75.3,72.0,74.0,72.1,70.0,96,90,71,0.00,40.00,5,1,0,0.00
2013-10-20,62.0,43.8,36.0,46.0,31.1,-99.9,98,76,43,0.00,40.00,4,2,0,0.00
2013-10-21,69.0,53.4,38.0,47.0,40.6,37.0,98,68,33,0.00,40.00,8,3,0,0.00
2013-10-22,56.0,48.3,38.0,48.0,37.5,27.0,96,69,36,0.00,40.00,4,2,0,0.00
2013-10-23,47.0,44.6,40.0,44.0,38.5,32.0,92,79,58,0.00,40.00,7,3,0,0.00
2013-10-24,47.0,41.4,36.0,36.0,33.3,30.0,83,73,54,0.00,40.00,6,2,0,0.00
2013-10-25,51.0,37.2,29.0,30.0,27.8,23.0,95,72,37,0.00,40.00,5,2,0,0.00
2013-10-26,56.0,38.9,27.0,37.0,30.8,26.0,97,76,39,0.00,40.00,10,3,0,0.00
2013-10-27,63.0,44.5,33.0,39.0,30.9,-99.9,97,69,32,0.00,40.00,4,2,0,0.00
2013-10-28,64.0,48.0,37.0,49.0,38.5,-99.9,94,79,48,0.00,40.00,2,1,0,0.00
2013-10-29,57.0,48.8,40.0,54.0,47.1,39.0,98,94,86,0.00,40.00,2,1,0,0.00
2013-10-30,68.0,60.5,55.0,64.0,59.1,54.0,97,94,84,0.00,40.00,4,2,0,0.00
2013-10-31,68.0,63.3,60.0,62.0,58.7,55.0,96,85,69,0.00,40.00,13,5,0,0.00
2013-11-1,66.0,57.5,51.0,54.0,48.2,45.0,93,73,48,0.00,40.00,10,6,0,0.00
2013-11-2,56.0,49.0,42.0,46.0,40.0,37.0,95,72,56,0.00,40.00,6,2,0,0.00
2013-11-3,39.0,39.0,39.0,37.0,37.0,37.0,91,91,91,0.00,40.00,1,1,0,0.00